www.winti-wetter.ch
Wetterdaten: aktuell Freitag, 04.12.2020 17:40
Datum Zeit Temp. A. Feuchte A. Luftdruck Regen Wind Richtung Richtung Sonnenschein T Zeit Regen Solar Windben
04.12.2020 17:40 0.7 C 91 % 991.8 hPa 0.0 l/m 1.0 km/h SW 222 0 min 0 min 0 W/m 3.2 km/h
04.12.2020 17:35 0.7 C 91 % 991.7 hPa 0.0 l/m 1.3 km/h SW 222 0 min 0 min 0 W/m 3.2 km/h
04.12.2020 17:30 0.7 C 90 % 991.8 hPa 0.0 l/m 1.9 km/h SW 222 0 min 0 min 0 W/m 3.2 km/h
04.12.2020 17:25 0.8 C 90 % 991.8 hPa 0.0 l/m 2.4 km/h SW 222 0 min 0 min 0 W/m 3.2 km/h
04.12.2020 17:20 0.8 C 90 % 991.8 hPa 0.0 l/m 0.7 km/h SW 221 0 min 0 min 0 W/m 3.2 km/h
04.12.2020 17:15 0.9 C 90 % 991.7 hPa 0.0 l/m 1.5 km/h SW 222 0 min 0 min 0 W/m 3.2 km/h
04.12.2020 17:10 0.9 C 90 % 991.7 hPa 0.0 l/m 1.4 km/h SW 221 0 min 0 min 0 W/m 3.2 km/h
04.12.2020 17:05 1.0 C 90 % 991.6 hPa 0.0 l/m 2.4 km/h SW 221 0 min 0 min 0 W/m 3.2 km/h
04.12.2020 17:00 1.1 C 90 % 991.6 hPa 0.0 l/m 1.5 km/h SW 221 0 min 0 min 0 W/m 3.2 km/h
04.12.2020 16:55 1.1 C 90 % 991.6 hPa 0.0 l/m 2.3 km/h SW 222 0 min 0 min 0 W/m 4.8 km/h
04.12.2020 16:50 1.2 C 90 % 991.3 hPa 0.0 l/m 0.8 km/h S-SW 208 0 min 0 min 0 W/m 3.2 km/h
04.12.2020 16:45 1.3 C 90 % 991.1 hPa 0.0 l/m 0.4 km/h S-SW 208 0 min 0 min 0 W/m 1.6 km/h
04.12.2020 16:40 1.3 C 90 % 990.9 hPa 0.0 l/m 0.4 km/h S-SW 208 0 min 0 min 1 W/m 1.6 km/h
04.12.2020 16:35 1.4 C 90 % 991.2 hPa 0.0 l/m 0.0 km/h S-SW 208 0 min 0 min 5 W/m 0.0 km/h
04.12.2020 16:30 1.4 C 90 % 991.3 hPa 0.0 l/m 0.0 km/h S-SW 207 0 min 0 min 7 W/m 0.0 km/h
04.12.2020 16:25 1.5 C 90 % 991.4 hPa 0.0 l/m 0.7 km/h S-SW 208 0 min 0 min 9 W/m 3.2 km/h
04.12.2020 16:21 1.5 C 90 % 991.4 hPa 0.0 l/m 1.3 km/h S-SW 204 0 min 0 min 11 W/m 6.4 km/h
04.12.2020 16:15 1.5 C 90 % 991.4 hPa 0.0 l/m 3.8 km/h S-SW 195 0 min 0 min 12 W/m 8.0 km/h
04.12.2020 16:10 1.5 C 90 % 991.4 hPa 0.0 l/m 3.8 km/h S-SW 206 0 min 0 min 18 W/m 9.7 km/h
04.12.2020 16:05 1.6 C 90 % 991.4 hPa 0.0 l/m 2.1 km/h SW 219 0 min 0 min 17 W/m 4.8 km/h
04.12.2020 16:00 1.6 C 89 % 991.5 hPa 0.0 l/m 6.3 km/h S-SW 204 0 min 0 min 16 W/m 11.3 km/h
04.12.2020 15:55 1.6 C 89 % 991.3 hPa 0.0 l/m 2.3 km/h S 183 0 min 0 min 22 W/m 4.8 km/h
04.12.2020 15:50 1.6 C 89 % 991.5 hPa 0.0 l/m 3.1 km/h S-SW 198 0 min 0 min 23 W/m 6.4 km/h
04.12.2020 15:45 1.6 C 89 % 991.4 hPa 0.0 l/m 5.7 km/h S 185 0 min 0 min 21 W/m 11.3 km/h
04.12.2020 15:40 1.6 C 89 % 991.3 hPa 0.0 l/m 5.7 km/h S 169 0 min 0 min 28 W/m 9.7 km/h
04.12.2020 15:35 1.6 C 89 % 991.1 hPa 0.0 l/m 6.1 km/h S-SO 165 0 min 0 min 29 W/m 9.7 km/h
04.12.2020 15:30 1.6 C 90 % 990.9 hPa 0.0 l/m 6.4 km/h S-SW 194 0 min 0 min 27 W/m 12.9 km/h
04.12.2020 15:25 1.6 C 90 % 991.0 hPa 0.0 l/m 2.3 km/h S-SO 160 0 min 0 min 27 W/m 8.0 km/h
04.12.2020 15:20 1.6 C 90 % 991.0 hPa 0.0 l/m 4.5 km/h S 191 0 min 0 min 26 W/m 9.7 km/h
04.12.2020 15:15 1.6 C 90 % 991.1 hPa 0.0 l/m 5.0 km/h S 175 0 min 0 min 29 W/m 9.7 km/h
04.12.2020 15:10 1.6 C 90 % 991.1 hPa 0.0 l/m 5.2 km/h S-SO 164 0 min 0 min 30 W/m 8.0 km/h
04.12.2020 15:05 1.6 C 90 % 991.0 hPa 0.0 l/m 5.5 km/h S-SW 197 0 min 0 min 34 W/m 9.7 km/h
04.12.2020 15:00 1.5 C 90 % 990.7 hPa 0.0 l/m 4.2 km/h S 187 0 min 0 min 37 W/m 6.4 km/h
04.12.2020 14:55 1.5 C 90 % 990.6 hPa 0.0 l/m 3.3 km/h S-SW 211 0 min 0 min 41 W/m 8.0 km/h
04.12.2020 14:50 1.5 C 90 % 990.6 hPa 0.0 l/m 3.8 km/h S-SW 197 0 min 0 min 45 W/m 9.7 km/h
04.12.2020 14:45 1.6 C 90 % 990.6 hPa 0.0 l/m 4.1 km/h S 169 0 min 0 min 45 W/m 8.0 km/h
04.12.2020 14:40 1.6 C 90 % 990.6 hPa 0.0 l/m 3.6 km/h W-SW 239 0 min 0 min 57 W/m 6.4 km/h
04.12.2020 14:35 1.6 C 90 % 990.6 hPa 0.0 l/m 4.2 km/h S 190 0 min 0 min 56 W/m 9.7 km/h
04.12.2020 14:30 1.5 C 90 % 990.6 hPa 0.0 l/m 2.4 km/h S 182 0 min 0 min 59 W/m 4.8 km/h
04.12.2020 14:25 1.4 C 90 % 990.4 hPa 0.0 l/m 2.1 km/h S 188 0 min 0 min 59 W/m 8.0 km/h
04.12.2020 14:20 1.3 C 91 % 990.3 hPa 0.0 l/m 3.2 km/h S-SW 203 0 min 0 min 56 W/m 6.4 km/h
04.12.2020 14:15 1.2 C 91 % 990.3 hPa 0.0 l/m 4.4 km/h SW 224 0 min 0 min 54 W/m 9.7 km/h
04.12.2020 14:10 1.2 C 91 % 990.5 hPa 0.0 l/m 4.3 km/h S 186 0 min 0 min 48 W/m 9.7 km/h
04.12.2020 14:05 1.1 C 91 % 990.5 hPa 0.0 l/m 5.9 km/h SW 217 0 min 0 min 42 W/m 9.7 km/h
04.12.2020 14:00 1.1 C 91 % 990.4 hPa 0.0 l/m 3.4 km/h SW 222 0 min 0 min 48 W/m 6.4 km/h
04.12.2020 13:55 1.1 C 91 % 990.5 hPa 0.0 l/m 3.1 km/h W-SW 245 0 min 0 min 50 W/m 8.0 km/h
04.12.2020 13:50 1.1 C 91 % 990.5 hPa 0.0 l/m 4.3 km/h SW 221 0 min 0 min 53 W/m 8.0 km/h
04.12.2020 13:45 1.0 C 92 % 990.4 hPa 0.0 l/m 3.1 km/h W-SW 238 0 min 0 min 58 W/m 6.4 km/h
04.12.2020 13:40 0.9 C 92 % 990.2 hPa 0.0 l/m 2.1 km/h W-SW 249 0 min 0 min 62 W/m 4.8 km/h
04.12.2020 13:35 1.0 C 92 % 990.0 hPa 0.0 l/m 1.6 km/h W-NW 295 0 min 0 min 69 W/m 4.8 km/h
04.12.2020 13:30 0.9 C 92 % 990.1 hPa 0.0 l/m 1.2 km/h W 259 0 min 0 min 74 W/m 6.4 km/h
04.12.2020 13:25 0.9 C 92 % 990.1 hPa 0.0 l/m 2.8 km/h W 264 0 min 0 min 70 W/m 6.4 km/h
04.12.2020 13:20 0.8 C 92 % 990.0 hPa 0.0 l/m 3.1 km/h W-NW 287 0 min 0 min 70 W/m 6.4 km/h
04.12.2020 13:15 0.9 C 92 % 990.1 hPa 0.0 l/m 3.7 km/h W 259 0 min 0 min 70 W/m 6.4 km/h
04.12.2020 13:10 0.9 C 92 % 989.9 hPa 0.0 l/m 4.7 km/h N-NW 329 0 min 0 min 59 W/m 8.0 km/h
04.12.2020 13:05 0.9 C 92 % 990.1 hPa 0.0 l/m 2.8 km/h NW 306 0 min 0 min 53 W/m 4.8 km/h
04.12.2020 13:00 0.9 C 92 % 990.1 hPa 0.0 l/m 2.2 km/h NW 316 0 min 0 min 62 W/m 4.8 km/h
04.12.2020 12:55 0.9 C 92 % 990.0 hPa 0.0 l/m 2.3 km/h W-NW 295 0 min 0 min 68 W/m 3.2 km/h
04.12.2020 12:50 0.8 C 92 % 990.1 hPa 0.0 l/m 2.5 km/h W-NW 295 0 min 0 min 63 W/m 4.8 km/h
04.12.2020 12:45 0.9 C 92 % 990.1 hPa 0.0 l/m 2.0 km/h W-NW 300 0 min 0 min 71 W/m 6.4 km/h
04.12.2020 12:40 0.8 C 92 % 990.1 hPa 0.0 l/m 1.2 km/h NW 306 0 min 0 min 83 W/m 3.2 km/h
04.12.2020 12:35 0.8 C 92 % 990.0 hPa 0.0 l/m 2.8 km/h W-NW 286 0 min 0 min 62 W/m 4.8 km/h
04.12.2020 12:30 0.8 C 93 % 990.0 hPa 0.0 l/m 2.0 km/h N-NW 343 0 min 0 min 56 W/m 4.8 km/h
04.12.2020 12:25 0.8 C 93 % 990.1 hPa 0.0 l/m 3.1 km/h N-NW 344 0 min 0 min 54 W/m 4.8 km/h
04.12.2020 12:20 0.8 C 93 % 990.1 hPa 0.0 l/m 3.0 km/h N-NW 334 0 min 0 min 57 W/m 4.8 km/h
04.12.2020 12:15 0.8 C 93 % 990.1 hPa 0.0 l/m 2.5 km/h N 355 0 min 0 min 59 W/m 4.8 km/h
04.12.2020 12:10 0.8 C 93 % 990.2 hPa 0.0 l/m 1.6 km/h N-NO 28 0 min 0 min 64 W/m 6.4 km/h
04.12.2020 12:05 0.8 C 93 % 990.2 hPa 0.0 l/m 4.7 km/h N-NO 28 0 min 0 min 62 W/m 8.0 km/h
04.12.2020 12:00 0.8 C 93 % 990.0 hPa 0.0 l/m 2.6 km/h N-NW 348 0 min 0 min 64 W/m 4.8 km/h
04.12.2020 11:55 0.7 C 93 % 990.2 hPa 0.0 l/m 1.9 km/h N-NW 344 0 min 0 min 67 W/m 6.4 km/h
04.12.2020 11:50 0.7 C 93 % 990.1 hPa 0.0 l/m 3.4 km/h N-NW 337 0 min 0 min 67 W/m 6.4 km/h
04.12.2020 11:45 0.7 C 93 % 990.2 hPa 0.0 l/m 2.6 km/h N-NW 336 0 min 0 min 74 W/m 4.8 km/h
04.12.2020 11:40 0.7 C 93 % 990.1 hPa 0.0 l/m 3.0 km/h N-NW 331 0 min 0 min 72 W/m 4.8 km/h
04.12.2020 11:35 0.7 C 93 % 990.2 hPa 0.0 l/m 1.7 km/h N-NW 340 0 min 0 min 66 W/m 3.2 km/h
04.12.2020 11:30 0.6 C 94 % 990.2 hPa 0.0 l/m 2.2 km/h N-NW 341 0 min 0 min 59 W/m 4.8 km/h
04.12.2020 11:25 0.6 C 94 % 990.3 hPa 0.0 l/m 1.3 km/h N-NO 22 0 min 0 min 52 W/m 4.8 km/h
04.12.2020 11:20 0.5 C 94 % 990.3 hPa 0.0 l/m 1.2 km/h N-NW 338 0 min 0 min 47 W/m 3.2 km/h
04.12.2020 11:15 0.4 C 94 % 990.3 hPa 0.0 l/m 1.0 km/h N-NW 339 0 min 0 min 45 W/m 3.2 km/h
04.12.2020 11:10 0.4 C 94 % 990.5 hPa 0.0 l/m 0.8 km/h N-NW 339 0 min 0 min 46 W/m 3.2 km/h
04.12.2020 11:05 0.3 C 94 % 990.5 hPa 0.0 l/m 3.0 km/h N-NW 333 0 min 0 min 50 W/m 8.0 km/h
04.12.2020 11:00 0.3 C 94 % 990.5 hPa 0.0 l/m 4.3 km/h N 349 0 min 0 min 50 W/m 8.0 km/h
04.12.2020 10:55 0.3 C 94 % 990.8 hPa 0.0 l/m 3.2 km/h N 5 0 min 0 min 49 W/m 8.0 km/h
04.12.2020 10:50 0.3 C 94 % 990.6 hPa 0.0 l/m 3.0 km/h N-NO 13 0 min 0 min 53 W/m 6.4 km/h
04.12.2020 10:45 0.3 C 94 % 990.7 hPa 0.0 l/m 2.5 km/h NW 307 0 min 0 min 53 W/m 4.8 km/h
04.12.2020 10:40 0.3 C 95 % 990.7 hPa 0.0 l/m 3.2 km/h N-NW 346 0 min 0 min 53 W/m 8.0 km/h
04.12.2020 10:35 0.3 C 95 % 990.7 hPa 0.0 l/m 3.0 km/h N 355 0 min 0 min 53 W/m 6.4 km/h
04.12.2020 10:30 0.2 C 95 % 990.8 hPa 0.0 l/m 2.2 km/h N-NW 336 0 min 0 min 52 W/m 4.8 km/h
04.12.2020 10:25 0.2 C 95 % 990.7 hPa 0.0 l/m 1.9 km/h N-NW 333 0 min 0 min 60 W/m 4.8 km/h
04.12.2020 10:20 0.1 C 95 % 990.8 hPa 0.0 l/m 1.3 km/h N-NW 333 0 min 0 min 59 W/m 3.2 km/h
04.12.2020 10:15 0.1 C 95 % 990.8 hPa 0.0 l/m 2.6 km/h N-NW 333 0 min 0 min 55 W/m 4.8 km/h
04.12.2020 10:12 0.1 C 95 % 990.8 hPa 0.0 l/m 2.3 km/h N-NW 328 0 min 0 min 49 W/m 4.8 km/h
04.12.2020 10:05 0.0 C 95 % 990.7 hPa 0.0 l/m 1.9 km/h N-NW 341 0 min 0 min 48 W/m 4.8 km/h
04.12.2020 10:00 -0.1 C 95 % 990.5 hPa 0.0 l/m 3.0 km/h NW 322 0 min 0 min 54 W/m 6.4 km/h
04.12.2020 09:55 -0.1 C 95 % 990.4 hPa 0.0 l/m 3.7 km/h N-NW 338 0 min 0 min 58 W/m 8.0 km/h
04.12.2020 09:50 -0.2 C 95 % 990.3 hPa 0.0 l/m 3.0 km/h N-NW 329 0 min 0 min 48 W/m 6.4 km/h
04.12.2020 09:45 -0.2 C 95 % 990.6 hPa 0.0 l/m 2.9 km/h N-NW 335 0 min 0 min 44 W/m 6.4 km/h
04.12.2020 09:40 -0.2 C 96 % 990.5 hPa 0.0 l/m 4.2 km/h N-NO 22 0 min 0 min 42 W/m 8.0 km/h
04.12.2020 09:35 -0.3 C 95 % 990.7 hPa 0.0 l/m 5.3 km/h N 5 0 min 0 min 39 W/m 11.3 km/h
04.12.2020 09:30 -0.3 C 95 % 990.8 hPa 0.0 l/m 4.9 km/h NO 37 0 min 0 min 39 W/m 8.0 km/h
04.12.2020 09:25 -0.4 C 95 % 990.9 hPa 0.0 l/m 2.6 km/h NW 320 0 min 0 min 38 W/m 4.8 km/h
04.12.2020 09:20 -0.4 C 96 % 991.0 hPa 0.0 l/m 1.8 km/h N-NW 344 0 min 0 min 40 W/m 3.2 km/h
04.12.2020 09:15 -0.5 C 96 % 991.0 hPa 0.0 l/m 0.9 km/h N-NW 344 0 min 0 min 47 W/m 3.2 km/h
04.12.2020 09:10 -0.6 C 95 % 991.1 hPa 0.0 l/m 2.5 km/h N-NW 344 0 min 0 min 61 W/m 4.8 km/h
04.12.2020 09:05 -0.5 C 96 % 991.1 hPa 0.0 l/m 3.0 km/h N-NW 337 0 min 0 min 71 W/m 6.4 km/h
04.12.2020 09:00 -0.5 C 96 % 991.2 hPa 0.0 l/m 3.6 km/h N 355 0 min 0 min 71 W/m 6.4 km/h
04.12.2020 08:55 -0.6 C 96 % 991.4 hPa 0.0 l/m 3.2 km/h N 5 0 min 0 min 65 W/m 4.8 km/h
04.12.2020 08:50 -0.6 C 96 % 991.3 hPa 0.0 l/m 3.3 km/h N-NW 337 0 min 0 min 54 W/m 6.4 km/h
04.12.2020 08:45 -0.6 C 96 % 991.4 hPa 0.0 l/m 2.3 km/h N-NW 345 0 min 0 min 40 W/m 4.8 km/h
04.12.2020 08:40 -0.6 C 96 % 991.4 hPa 0.0 l/m 1.1 km/h N-NW 340 0 min 0 min 27 W/m 3.2 km/h
04.12.2020 08:35 -0.6 C 96 % 991.5 hPa 0.0 l/m 3.2 km/h N-NW 340 0 min 0 min 20 W/m 6.4 km/h
04.12.2020 08:30 -0.6 C 96 % 991.6 hPa 0.0 l/m 3.2 km/h N 350 0 min 0 min 20 W/m 6.4 km/h
04.12.2020 08:25 -0.6 C 96 % 991.7 hPa 0.0 l/m 0.7 km/h O-SO 119 0 min 0 min 16 W/m 3.2 km/h
04.12.2020 08:20 -0.6 C 95 % 991.8 hPa 0.0 l/m 1.2 km/h O-SO 119 0 min 0 min 14 W/m 3.2 km/h
04.12.2020 08:15 -0.7 C 95 % 991.8 hPa 0.0 l/m 1.4 km/h SO 128 0 min 0 min 8 W/m 3.2 km/h
04.12.2020 08:10 -0.7 C 95 % 991.7 hPa 0.0 l/m 0.5 km/h S-SO 155 0 min 0 min 4 W/m 3.2 km/h
04.12.2020 08:05 -0.7 C 95 % 992.0 hPa 0.0 l/m 2.0 km/h S-SO 155 0 min 0 min 0 W/m 4.8 km/h
04.12.2020 08:00 -0.7 C 95 % 991.7 hPa 0.0 l/m 2.1 km/h O-SO 120 0 min 0 min 0 W/m 6.4 km/h
04.12.2020 07:55 -0.7 C 95 % 991.7 hPa 0.0 l/m 1.9 km/h O-SO 111 0 min 0 min 0 W/m 4.8 km/h
04.12.2020 07:50 -0.8 C 95 % 991.6 hPa 0.0 l/m 1.2 km/h O-SO 109 0 min 0 min 0 W/m 3.2 km/h
04.12.2020 07:45 -0.8 C 95 % 991.7 hPa 0.0 l/m 0.6 km/h O-SO 109 0 min 0 min 0 W/m 3.2 km/h
04.12.2020 07:40 -0.8 C 95 % 991.8 hPa 0.0 l/m 0.2 km/h O-SO 109 0 min 0 min 0 W/m 1.6 km/h
04.12.2020 07:35 -0.8 C 96 % 991.9 hPa 0.0 l/m 0.8 km/h O-SO 109 0 min 0 min 0 W/m 3.2 km/h
04.12.2020 07:30 -0.8 C 95 % 992.0 hPa 0.0 l/m 0.7 km/h O-SO 109 0 min 0 min 0 W/m 3.2 km/h
04.12.2020 07:25 -0.8 C 95 % 992.1 hPa 0.0 l/m 0.4 km/h O-SO 109 0 min 0 min 0 W/m 1.6 km/h
04.12.2020 07:20 -0.8 C 95 % 992.1 hPa 0.0 l/m 0.0 km/h O-SO 109 0 min 0 min 0 W/m 1.6 km/h
04.12.2020 07:15 -0.8 C 95 % 992.1 hPa 0.0 l/m 0.0 km/h O-SO 109 0 min 0 min 0 W/m 0.0 km/h
04.12.2020 07:10 -0.8 C 95 % 992.2 hPa 0.0 l/m 0.3 km/h O-SO 109 0 min 0 min 0 W/m 1.6 km/h
04.12.2020 07:05 -0.8 C 95 % 992.3 hPa 0.0 l/m 1.6 km/h O-SO 109 0 min 0 min 0 W/m 3.2 km/h
04.12.2020 07:00 -0.8 C 95 % 992.2 hPa 0.0 l/m 2.9 km/h O-SO 109 0 min 0 min 0 W/m 4.8 km/h
04.12.2020 06:55 -0.9 C 96 % 992.2 hPa 0.0 l/m 2.1 km/h S-SO 150 0 min 0 min 0 W/m 4.8 km/h
04.12.2020 06:50 -0.9 C 96 % 992.3 hPa 0.0 l/m 1.6 km/h S-SO 150 0 min 0 min 0 W/m 3.2 km/h
04.12.2020 06:45 -1.0 C 95 % 992.4 hPa 0.0 l/m 1.3 km/h S-SO 151 0 min 0 min 0 W/m 3.2 km/h
04.12.2020 06:40 -1.0 C 95 % 992.5 hPa 0.0 l/m 2.2 km/h S-SO 152 0 min 0 min 0 W/m 4.8 km/h
04.12.2020 06:35 -1.1 C 95 % 992.5 hPa 0.0 l/m 1.4 km/h SO 131 0 min 0 min 0 W/m 3.2 km/h
04.12.2020 06:30 -1.1 C 95 % 992.4 hPa 0.0 l/m 0.4 km/h SO 126 0 min 0 min 0 W/m 3.2 km/h
04.12.2020 06:25 -1.1 C 95 % 992.5 hPa 0.0 l/m 0.3 km/h SO 126 0 min 0 min 0 W/m 1.6 km/h
04.12.2020 06:20 -1.1 C 95 % 992.6 hPa 0.0 l/m 0.6 km/h SO 126 0 min 0 min 0 W/m 1.6 km/h
04.12.2020 06:15 -1.1 C 95 % 992.9 hPa 0.0 l/m 1.3 km/h SO 126 0 min 0 min 0 W/m 3.2 km/h
04.12.2020 06:10 -1.1 C 95 % 992.9 hPa 0.0 l/m 0.0 km/h SO 126 0 min 0 min 0 W/m 1.6 km/h
04.12.2020 06:05 -1.1 C 95 % 993.0 hPa 0.0 l/m 0.2 km/h SO 126 0 min 0 min 0 W/m 1.6 km/h
04.12.2020 06:00 -1.1 C 95 % 992.9 hPa 0.0 l/m 0.1 km/h SO 126 0 min 0 min 0 W/m 1.6 km/h
04.12.2020 05:55 -1.1 C 95 % 992.9 hPa 0.0 l/m 0.4 km/h SO 126 0 min 0 min 0 W/m 1.6 km/h
04.12.2020 05:50 -1.1 C 95 % 992.8 hPa 0.0 l/m 1.8 km/h SO 126 0 min 0 min 0 W/m 3.2 km/h
04.12.2020 05:45 -1.1 C 95 % 992.9 hPa 0.0 l/m 0.5 km/h SO 126 0 min 0 min 0 W/m 3.2 km/h
04.12.2020 05:40 -1.1 C 95 % 993.0 hPa 0.0 l/m 2.3 km/h SO 126 0 min 0 min 0 W/m 3.2 km/h
04.12.2020 05:35 -1.1 C 95 % 993.0 hPa 0.0 l/m 1.6 km/h SO 135 0 min 0 min 0 W/m 4.8 km/h
04.12.2020 05:30 -1.1 C 95 % 993.0 hPa 0.0 l/m 0.0 km/h O-SO 112 0 min 0 min 0 W/m 1.6 km/h
04.12.2020 05:25 -1.1 C 95 % 992.9 hPa 0.0 l/m 1.3 km/h O-SO 113 0 min 0 min 0 W/m 3.2 km/h
04.12.2020 05:20 -1.1 C 95 % 993.0 hPa 0.0 l/m 2.5 km/h O-SO 114 0 min 0 min 0 W/m 4.8 km/h
04.12.2020 05:15 -1.1 C 95 % 993.3 hPa 0.0 l/m 0.7 km/h O-SO 114 0 min 0 min 0 W/m 3.2 km/h
04.12.2020 05:10 -1.2 C 95 % 993.1 hPa 0.0 l/m 1.9 km/h O-SO 111 0 min 0 min 0 W/m 4.8 km/h
04.12.2020 05:05 -1.2 C 95 % 993.1 hPa 0.0 l/m 1.0 km/h NO 44 0 min 0 min 0 W/m 3.2 km/h
04.12.2020 05:00 -1.2 C 95 % 993.0 hPa 0.0 l/m 1.9 km/h W-NW 303 0 min 0 min 0 W/m 3.2 km/h
04.12.2020 04:55 -1.2 C 95 % 993.1 hPa 0.0 l/m 0.0 km/h W-NW 297 0 min 0 min 0 W/m 1.6 km/h
04.12.2020 04:50 -1.2 C 95 % 993.0 hPa 0.0 l/m 0.9 km/h W-NW 297 0 min 0 min 0 W/m 1.6 km/h
04.12.2020 04:45 -1.2 C 95 % 993.0 hPa 0.0 l/m 0.8 km/h W-NW 297 0 min 0 min 0 W/m 3.2 km/h
04.12.2020 04:40 -1.2 C 95 % 993.0 hPa 0.0 l/m 0.7 km/h W-NW 297 0 min 0 min 0 W/m 1.6 km/h
04.12.2020 04:35 -1.2 C 95 % 993.0 hPa 0.0 l/m 1.1 km/h W-NW 297 0 min 0 min 0 W/m 3.2 km/h
04.12.2020 04:30 -1.3 C 95 % 993.0 hPa 0.0 l/m 1.3 km/h N-NO 26 0 min 0 min 0 W/m 3.2 km/h
04.12.2020 04:25 -1.3 C 95 % 992.9 hPa 0.0 l/m 2.3 km/h N-NO 26 0 min 0 min 0 W/m 4.8 km/h
04.12.2020 04:20 -1.2 C 95 % 992.9 hPa 0.0 l/m 2.3 km/h N-NO 26 0 min 0 min 0 W/m 4.8 km/h
04.12.2020 04:15 -1.2 C 95 % 993.0 hPa 0.0 l/m 2.9 km/h NO 34 0 min 0 min 0 W/m 4.8 km/h
04.12.2020 04:10 -1.2 C 95 % 993.1 hPa 0.0 l/m 1.2 km/h W-NW 296 0 min 0 min 0 W/m 3.2 km/h
04.12.2020 04:05 -1.2 C 95 % 993.4 hPa 0.0 l/m 0.7 km/h W-NW 296 0 min 0 min 0 W/m 3.2 km/h
04.12.2020 04:00 -1.2 C 96 % 993.4 hPa 0.0 l/m 0.7 km/h W-NW 296 0 min 0 min 0 W/m 3.2 km/h
04.12.2020 03:55 -1.2 C 96 % 993.3 hPa 0.0 l/m 1.4 km/h W-NW 296 0 min 0 min 0 W/m 3.2 km/h
04.12.2020 03:50 -1.3 C 95 % 993.1 hPa 0.0 l/m 0.8 km/h W-NW 296 0 min 0 min 0 W/m 1.6 km/h
04.12.2020 03:45 -1.4 C 95 % 993.0 hPa 0.0 l/m 0.8 km/h W-NW 296 0 min 0 min 0 W/m 3.2 km/h
04.12.2020 03:40 -1.4 C 95 % 993.1 hPa 0.0 l/m 0.8 km/h W-NW 295 0 min 0 min 0 W/m 1.6 km/h
04.12.2020 03:35 -1.4 C 96 % 993.2 hPa 0.0 l/m 0.3 km/h W-NW 296 0 min 0 min 0 W/m 1.6 km/h
04.12.2020 03:30 -1.4 C 96 % 993.3 hPa 0.0 l/m 0.4 km/h W-NW 296 0 min 0 min 0 W/m 1.6 km/h
04.12.2020 03:25 -1.4 C 96 % 993.4 hPa 0.0 l/m 0.3 km/h W-NW 296 0 min 0 min 0 W/m 1.6 km/h
04.12.2020 03:20 -1.4 C 95 % 993.5 hPa 0.0 l/m 1.0 km/h W-NW 296 0 min 0 min 0 W/m 3.2 km/h
04.12.2020 03:15 -1.3 C 96 % 993.5 hPa 0.0 l/m 1.9 km/h W-NW 295 0 min 0 min 0 W/m 4.8 km/h
04.12.2020 03:10 -1.4 C 96 % 993.6 hPa 0.0 l/m 1.9 km/h NW 314 0 min 0 min 0 W/m 4.8 km/h
04.12.2020 03:05 -1.4 C 96 % 993.6 hPa 0.0 l/m 0.8 km/h O-SO 106 0 min 0 min 0 W/m 3.2 km/h
04.12.2020 03:00 -1.4 C 96 % 993.6 hPa 0.0 l/m 0.5 km/h O-SO 107 0 min 0 min 0 W/m 3.2 km/h
04.12.2020 02:55 -1.4 C 96 % 993.6 hPa 0.0 l/m 0.9 km/h O-SO 107 0 min 0 min 0 W/m 3.2 km/h
04.12.2020 02:50 -1.5 C 96 % 993.7 hPa 0.0 l/m 0.0 km/h O-SO 107 0 min 0 min 0 W/m 0.0 km/h
04.12.2020 02:45 -1.5 C 96 % 993.7 hPa 0.0 l/m 0.5 km/h O-SO 107 0 min 0 min 0 W/m 1.6 km/h
04.12.2020 02:40 -1.5 C 96 % 993.9 hPa 0.0 l/m 0.2 km/h O-SO 107 0 min 0 min 0 W/m 1.6 km/h
04.12.2020 02:35 -1.5 C 96 % 993.8 hPa 0.0 l/m 1.5 km/h O-SO 107 0 min 0 min 0 W/m 4.8 km/h
04.12.2020 02:30 -1.5 C 96 % 993.8 hPa 0.0 l/m 2.8 km/h O-SO 106 0 min 0 min 0 W/m 4.8 km/h
04.12.2020 02:25 -1.5 C 96 % 993.9 hPa 0.0 l/m 0.7 km/h N-NW 336 0 min 0 min 0 W/m 1.6 km/h
04.12.2020 02:20 -1.5 C 96 % 993.9 hPa 0.0 l/m 0.9 km/h N-NW 337 0 min 0 min 0 W/m 3.2 km/h
04.12.2020 02:15 -1.5 C 96 % 994.0 hPa 0.0 l/m 0.1 km/h N-NW 331 0 min 0 min 0 W/m 1.6 km/h
04.12.2020 02:10 -1.5 C 96 % 994.1 hPa 0.0 l/m 0.7 km/h N-NW 331 0 min 0 min 0 W/m 3.2 km/h
04.12.2020 02:05 -1.6 C 96 % 994.0 hPa 0.0 l/m 0.4 km/h N-NW 331 0 min 0 min 0 W/m 3.2 km/h
04.12.2020 02:00 -1.6 C 96 % 994.1 hPa 0.0 l/m 0.4 km/h N-NW 331 0 min 0 min 0 W/m 3.2 km/h
04.12.2020 01:55 -1.6 C 96 % 994.1 hPa 0.0 l/m 1.1 km/h N-NW 331 0 min 0 min 0 W/m 3.2 km/h
04.12.2020 01:50 -1.6 C 96 % 994.4 hPa 0.0 l/m 0.4 km/h N-NW 328 0 min 0 min 0 W/m 1.6 km/h
04.12.2020 01:45 -1.6 C 96 % 994.4 hPa 0.0 l/m 1.0 km/h N-NW 328 0 min 0 min 0 W/m 1.6 km/h
04.12.2020 01:40 -1.6 C 96 % 994.5 hPa 0.0 l/m 0.4 km/h N-NW 328 0 min 0 min 0 W/m 1.6 km/h
04.12.2020 01:35 -1.6 C 96 % 994.5 hPa 0.0 l/m 0.9 km/h N-NW 328 0 min 0 min 0 W/m 3.2 km/h
04.12.2020 01:30 -1.6 C 96 % 994.6 hPa 0.0 l/m 1.3 km/h N-NW 328 0 min 0 min 0 W/m 3.2 km/h
04.12.2020 01:25 -1.6 C 96 % 994.6 hPa 0.0 l/m 0.9 km/h N-NW 329 0 min 0 min 0 W/m 3.2 km/h
04.12.2020 01:20 -1.6 C 96 % 994.6 hPa 0.0 l/m 2.2 km/h N-NW 329 0 min 0 min 0 W/m 3.2 km/h
04.12.2020 01:15 -1.6 C 96 % 994.9 hPa 0.0 l/m 1.4 km/h N-NW 327 0 min 0 min 0 W/m 3.2 km/h
04.12.2020 01:10 -1.6 C 96 % 995.0 hPa 0.0 l/m 1.7 km/h N-NW 327 0 min 0 min 0 W/m 3.2 km/h
04.12.2020 01:05 -1.7 C 96 % 995.1 hPa 0.0 l/m 1.0 km/h NW 324 0 min 0 min 0 W/m 4.8 km/h
04.12.2020 01:00 -1.7 C 96 % 995.2 hPa 0.0 l/m 1.0 km/h NW 325 0 min 0 min 0 W/m 3.2 km/h
04.12.2020 00:55 -1.7 C 96 % 995.2 hPa 0.0 l/m 1.5 km/h NW 325 0 min 0 min 0 W/m 3.2 km/h
04.12.2020 00:50 -1.7 C 96 % 995.3 hPa 0.0 l/m 2.7 km/h NW 325 0 min 0 min 0 W/m 4.8 km/h
04.12.2020 00:45 -1.7 C 96 % 995.3 hPa 0.0 l/m 1.6 km/h W 261 0 min 0 min 0 W/m 3.2 km/h
04.12.2020 00:40 -1.7 C 96 % 995.5 hPa 0.0 l/m 1.4 km/h S 178 0 min 0 min 0 W/m 3.2 km/h
04.12.2020 00:35 -1.8 C 96 % 995.7 hPa 0.0 l/m 0.8 km/h SO 136 0 min 0 min 0 W/m 1.6 km/h
04.12.2020 00:30 -1.9 C 96 % 995.6 hPa 0.0 l/m 0.1 km/h SO 136 0 min 0 min 0 W/m 1.6 km/h
04.12.2020 00:25 -1.9 C 96 % 995.6 hPa 0.0 l/m 0.1 km/h SO 136 0 min 0 min 0 W/m 1.6 km/h
04.12.2020 00:20 -1.9 C 96 % 995.6 hPa 0.0 l/m 1.5 km/h SO 136 0 min 0 min 0 W/m 3.2 km/h
04.12.2020 00:15 -2.0 C 96 % 995.5 hPa 0.0 l/m 2.6 km/h O-NO 72 0 min 0 min 0 W/m 4.8 km/h
04.12.2020 00:10 -2.0 C 96 % 995.9 hPa 0.0 l/m 2.2 km/h O 82 0 min 0 min 0 W/m 3.2 km/h
04.12.2020 00:05 -2.1 C 96 % 996.0 hPa 0.0 l/m 2.1 km/h O 82 0 min 0 min 0 W/m 3.2 km/h
04.12.2020 00:00 -2.1 C 96 % 996.2 hPa 0.0 l/m 1.6 km/h SO 127 0 min 0 min 0 W/m 3.2 km/h
03.12.2020 23:55 -2.1 C 96 % 996.3 hPa 0.0 l/m 0.0 km/h SO 129 0 min 0 min 0 W/m 1.6 km/h
03.12.2020 23:50 -2.2 C 96 % 996.3 hPa 0.0 l/m 0.2 km/h SO 129 0 min 0 min 0 W/m 1.6 km/h
03.12.2020 23:45 -2.2 C 96 % 996.3 hPa 0.0 l/m 0.8 km/h SO 129 0 min 0 min 0 W/m 3.2 km/h
03.12.2020 23:40 -2.2 C 96 % 996.3 hPa 0.0 l/m 1.9 km/h O-SO 113 0 min 0 min 0 W/m 4.8 km/h
03.12.2020 23:35 -2.2 C 96 % 996.4 hPa 0.0 l/m 2.3 km/h O-SO 119 0 min 0 min 0 W/m 4.8 km/h
03.12.2020 23:30 -2.2 C 96 % 996.9 hPa 0.0 l/m 2.4 km/h W-SW 243 0 min 0 min 0 W/m 4.8 km/h
03.12.2020 23:25 -2.3 C 96 % 996.7 hPa 0.0 l/m 0.9 km/h NO 53 0 min 0 min 0 W/m 4.8 km/h
03.12.2020 23:20 -2.3 C 96 % 996.8 hPa 0.0 l/m 1.8 km/h NO 40 0 min 0 min 0 W/m 3.2 km/h
03.12.2020 23:15 -2.3 C 96 % 997.0 hPa 0.0 l/m 0.1 km/h NO 38 0 min 0 min 0 W/m 1.6 km/h
03.12.2020 23:10 -2.3 C 96 % 997.2 hPa 0.0 l/m 1.3 km/h NO 38 0 min 0 min 0 W/m 4.8 km/h
03.12.2020 23:05 -2.3 C 96 % 997.2 hPa 0.0 l/m 1.7 km/h NO 38 0 min 0 min 0 W/m 4.8 km/h
03.12.2020 23:00 -2.2 C 95 % 997.1 hPa 0.0 l/m 1.0 km/h SO 140 0 min 0 min 0 W/m 3.2 km/h
03.12.2020 22:55 -2.1 C 96 % 997.2 hPa 0.0 l/m 1.9 km/h S-SO 161 0 min 0 min 0 W/m 4.8 km/h
03.12.2020 22:50 -2.1 C 96 % 997.6 hPa 0.0 l/m 0.6 km/h S-SW 205 0 min 0 min 0 W/m 3.2 km/h
03.12.2020 22:45 -2.2 C 96 % 997.7 hPa 0.0 l/m 1.5 km/h S-SW 205 0 min 0 min 0 W/m 3.2 km/h
03.12.2020 22:40 -2.1 C 96 % 997.6 hPa 0.0 l/m 1.1 km/h S-SW 205 0 min 0 min 0 W/m 3.2 km/h
03.12.2020 22:35 -2.1 C 96 % 997.6 hPa 0.0 l/m 0.0 km/h S-SW 205 0 min 0 min 0 W/m 0.0 km/h
03.12.2020 22:30 -2.2 C 96 % 997.7 hPa 0.0 l/m 0.7 km/h S-SW 205 0 min 0 min 0 W/m 1.6 km/h
03.12.2020 22:25 -2.1 C 95 % 997.9 hPa 0.0 l/m 1.7 km/h S-SW 205 0 min 0 min 0 W/m 3.2 km/h
03.12.2020 22:20 -2.0 C 95 % 998.0 hPa 0.0 l/m 0.2 km/h S-SW 205 0 min 0 min 0 W/m 1.6 km/h
03.12.2020 22:15 -1.9 C 95 % 998.1 hPa 0.0 l/m 0.9 km/h S-SW 205 0 min 0 min 0 W/m 3.2 km/h
03.12.2020 22:10 -1.9 C 96 % 998.1 hPa 0.0 l/m 1.3 km/h S-SW 205 0 min 0 min 0 W/m 3.2 km/h
03.12.2020 22:05 -1.9 C 96 % 998.2 hPa 0.0 l/m 2.2 km/h S-SW 205 0 min 0 min 0 W/m 4.8 km/h
03.12.2020 22:00 -1.9 C 96 % 998.4 hPa 0.0 l/m 1.9 km/h S-SW 194 0 min 0 min 0 W/m 6.4 km/h
03.12.2020 21:55 -2.1 C 95 % 998.4 hPa 0.0 l/m 1.4 km/h S-SO 149 0 min 0 min 0 W/m 3.2 km/h
03.12.2020 21:50 -2.1 C 95 % 998.4 hPa 0.0 l/m 0.2 km/h SO 129 0 min 0 min 0 W/m 1.6 km/h
03.12.2020 21:45 -2.0 C 95 % 998.3 hPa 0.0 l/m 1.5 km/h SO 129 0 min 0 min 0 W/m 4.8 km/h
03.12.2020 21:40 -2.0 C 95 % 998.4 hPa 0.0 l/m 0.8 km/h O 99 0 min 0 min 0 W/m 1.6 km/h
03.12.2020 21:35 -2.0 C 95 % 998.6 hPa 0.0 l/m 1.1 km/h O 99 0 min 0 min 0 W/m 1.6 km/h
03.12.2020 21:30 -2.0 C 95 % 998.6 hPa 0.0 l/m 0.5 km/h O 99 0 min 0 min 0 W/m 1.6 km/h
03.12.2020 21:25 -1.9 C 95 % 998.6 hPa 0.0 l/m 0.0 km/h O 99 0 min 0 min 0 W/m 0.0 km/h
03.12.2020 21:20 -2.0 C 95 % 998.7 hPa 0.0 l/m 0.0 km/h O 99 0 min 0 min 0 W/m 0.0 km/h
03.12.2020 21:15 -1.9 C 95 % 998.7 hPa 0.0 l/m 2.6 km/h O 99 0 min 0 min 0 W/m 4.8 km/h
03.12.2020 21:10 -1.8 C 95 % 998.9 hPa 0.0 l/m 0.0 km/h SO 138 0 min 0 min 0 W/m 1.6 km/h
03.12.2020 21:05 -1.8 C 95 % 999.0 hPa 0.0 l/m 0.0 km/h SO 138 0 min 0 min 0 W/m 0.0 km/h
03.12.2020 21:00 -1.8 C 95 % 999.1 hPa 0.0 l/m 0.8 km/h SO 138 0 min 0 min 0 W/m 3.2 km/h
03.12.2020 20:55 -1.7 C 95 % 999.2 hPa 0.0 l/m 0.5 km/h SO 138 0 min 0 min 0 W/m 1.6 km/h
03.12.2020 20:50 -1.8 C 95 % 999.2 hPa 0.0 l/m 0.2 km/h SO 138 0 min 0 min 0 W/m 1.6 km/h
03.12.2020 20:45 -1.7 C 94 % 999.3 hPa 0.0 l/m 0.6 km/h SO 138 0 min 0 min 0 W/m 1.6 km/h
03.12.2020 20:40 -1.6 C 95 % 999.4 hPa 0.0 l/m 0.8 km/h SO 138 0 min 0 min 0 W/m 1.6 km/h
03.12.2020 20:35 -1.6 C 95 % 999.4 hPa 0.0 l/m 0.4 km/h SO 138 0 min 0 min 0 W/m 1.6 km/h
03.12.2020 20:30 -1.7 C 94 % 999.5 hPa 0.0 l/m 1.0 km/h SO 138 0 min 0 min 0 W/m 1.6 km/h
03.12.2020 20:25 -1.7 C 94 % 999.6 hPa 0.0 l/m 0.4 km/h SO 139 0 min 0 min 0 W/m 1.6 km/h
03.12.2020 20:20 -1.7 C 94 % 999.7 hPa 0.0 l/m 0.0 km/h SO 138 0 min 0 min 0 W/m 0.0 km/h
03.12.2020 20:15 -1.6 C 94 % 999.7 hPa 0.0 l/m 0.0 km/h SO 138 0 min 0 min 0 W/m 0.0 km/h
03.12.2020 20:10 -1.6 C 94 % 999.7 hPa 0.0 l/m 0.4 km/h SO 138 0 min 0 min 0 W/m 1.6 km/h
03.12.2020 20:05 -1.5 C 93 % 999.8 hPa 0.0 l/m 0.1 km/h SO 138 0 min 0 min 0 W/m 1.6 km/h
03.12.2020 20:00 -1.4 C 93 % 999.9 hPa 0.0 l/m 0.3 km/h SO 138 0 min 0 min 0 W/m 1.6 km/h
03.12.2020 19:55 -1.2 C 93 % 999.9 hPa 0.0 l/m 0.0 km/h SO 138 0 min 0 min 0 W/m 1.6 km/h
03.12.2020 19:50 -1.2 C 93 % 1000.0 hPa 0.0 l/m 0.0 km/h SO 138 0 min 0 min 0 W/m 1.6 km/h
03.12.2020 19:45 -1.2 C 93 % 1000.2 hPa 0.0 l/m 0.0 km/h SO 138 0 min 0 min 0 W/m 0.0 km/h
03.12.2020 19:40 -1.0 C 92 % 1000.3 hPa 0.0 l/m 0.1 km/h SO 138 0 min 0 min 0 W/m 1.6 km/h
03.12.2020 19:35 -1.0 C 93 % 1000.4 hPa 0.0 l/m 0.2 km/h SO 138 0 min 0 min 0 W/m 1.6 km/h
03.12.2020 19:30 -1.1 C 92 % 1000.5 hPa 0.0 l/m 0.2 km/h SO 138 0 min 0 min 0 W/m 1.6 km/h
03.12.2020 19:25 -0.9 C 92 % 1000.6 hPa 0.0 l/m 1.2 km/h SO 139 0 min 0 min 0 W/m 3.2 km/h
03.12.2020 19:20 -0.8 C 92 % 1000.7 hPa 0.0 l/m 0.0 km/h SO 138 0 min 0 min 0 W/m 0.0 km/h
03.12.2020 19:15 -0.8 C 92 % 1000.8 hPa 0.0 l/m 0.1 km/h SO 138 0 min 0 min 0 W/m 1.6 km/h
03.12.2020 19:10 -0.7 C 91 % 1000.8 hPa 0.0 l/m 0.7 km/h SO 138 0 min 0 min 0 W/m 1.6 km/h
03.12.2020 19:05 -0.5 C 91 % 1000.8 hPa 0.0 l/m 0.8 km/h SO 138 0 min 0 min 0 W/m 1.6 km/h
03.12.2020 19:00 -0.6 C 92 % 1000.8 hPa 0.0 l/m 1.1 km/h SO 138 0 min 0 min 0 W/m 4.8 km/h
03.12.2020 18:55 -0.6 C 92 % 1000.8 hPa 0.0 l/m 4.4 km/h SO 137 0 min 0 min 0 W/m 9.7 km/h
03.12.2020 18:50 -0.8 C 91 % 1001.0 hPa 0.0 l/m 1.6 km/h O-SO 115 0 min 0 min 0 W/m 4.8 km/h
03.12.2020 18:45 -0.7 C 91 % 1001.2 hPa 0.0 l/m 1.3 km/h SO 125 0 min 0 min 0 W/m 3.2 km/h
03.12.2020 18:40 -0.6 C 91 % 1001.2 hPa 0.0 l/m 2.0 km/h SO 125 0 min 0 min 0 W/m 3.2 km/h
03.12.2020 18:35 -0.7 C 91 % 1001.3 hPa 0.0 l/m 1.5 km/h O-SO 110 0 min 0 min 0 W/m 3.2 km/h
03.12.2020 18:30 -0.7 C 91 % 1001.4 hPa 0.0 l/m 1.5 km/h O-SO 110 0 min 0 min 0 W/m 3.2 km/h
03.12.2020 18:25 -0.7 C 91 % 1001.5 hPa 0.0 l/m 1.6 km/h O 84 0 min 0 min 0 W/m 3.2 km/h
03.12.2020 18:20 -0.7 C 92 % 1001.6 hPa 0.0 l/m 0.7 km/h O 81 0 min 0 min 0 W/m 3.2 km/h
03.12.2020 18:15 -0.9 C 91 % 1001.7 hPa 0.0 l/m 0.0 km/h O 81 0 min 0 min 0 W/m 0.0 km/h
03.12.2020 18:10 -0.8 C 91 % 1001.8 hPa 0.0 l/m 0.0 km/h O 81 0 min 0 min 0 W/m 0.0 km/h
03.12.2020 18:05 -0.7 C 90 % 1001.9 hPa 0.0 l/m 0.1 km/h O 81 0 min 0 min 0 W/m 1.6 km/h
03.12.2020 18:00 -0.4 C 91 % 1002.0 hPa 0.0 l/m 1.9 km/h O 81 0 min 0 min 0 W/m 3.2 km/h
_ Min-Zeit 23:05 15:35 13:10 - 18:10 - - - - - 18:10
Minimum _ -2.3 C 89 % 989.9 hPa - 0.0 km/h - - - - - 0.0 km/h
_ Max-Zeit 14:35 22:00 18:00 18:00 15:30 - - 18:00 18:00 12:40 15:30
Maximum _ 1.6 C 96 % 1002.0 hPa 0.0 l/m 6.4 km/h
S-SW
- - 0 min 0 min 83 W/m 12.9 km/h
S
Durchschnitt _ -0.6 C 94 % 994.4 hPa #0.0 l/m 1.7 km/h N-NW - #0 min. #0 min. 46 W/m 4.0 km/h